sensor_id;sensor_type;location;lat;lon;timestamp;pressure;altitude;pressure_sealevel;temperature;humidity
70248;BME280;57641;51.416;5.506;2023-11-21T00:00:15;101205.34;;;11.28;68.23
70248;BME280;57641;51.416;5.506;2023-11-21T00:02:42;101206.13;;;11.21;67.85
70248;BME280;57641;51.416;5.506;2023-11-21T00:05:08;101213.06;;;11.31;68.02
70248;BME280;57641;51.416;5.506;2023-11-21T00:07:36;101218.44;;;11.22;68.20
70248;BME280;57641;51.416;5.506;2023-11-21T00:10:02;101216.66;;;11.40;67.89
70248;BME280;57641;51.416;5.506;2023-11-21T00:12:30;101212.31;;;11.39;67.66
70248;BME280;57641;51.416;5.506;2023-11-21T00:14:57;101213.63;;;11.53;68.06
70248;BME280;57641;51.416;5.506;2023-11-21T00:17:23;101216.41;;;11.61;67.48
70248;BME280;57641;51.416;5.506;2023-11-21T00:19:48;101215.56;;;11.60;67.38
70248;BME280;57641;51.416;5.506;2023-11-21T00:22:13;101218.16;;;11.52;67.74
70248;BME280;57641;51.416;5.506;2023-11-21T00:24:39;101219.78;;;11.63;67.38
70248;BME280;57641;51.416;5.506;2023-11-21T00:27:05;101225.53;;;11.58;67.18
70248;BME280;57641;51.416;5.506;2023-11-21T00:29:31;101223.81;;;11.67;67.00
70248;BME280;57641;51.416;5.506;2023-11-21T00:31:56;101228.31;;;11.66;67.26
70248;BME280;57641;51.416;5.506;2023-11-21T00:34:22;101230.66;;;11.69;67.37
70248;BME280;57641;51.416;5.506;2023-11-21T00:36:47;101226.16;;;11.70;67.25
70248;BME280;57641;51.416;5.506;2023-11-21T00:39:12;101228.84;;;11.70;67.02
70248;BME280;57641;51.416;5.506;2023-11-21T00:41:38;101217.91;;;11.73;66.63
70248;BME280;57641;51.416;5.506;2023-11-21T00:44:04;101219.31;;;11.67;66.96
70248;BME280;57641;51.416;5.506;2023-11-21T00:46:29;101224.75;;;11.75;66.52
70248;BME280;57641;51.416;5.506;2023-11-21T00:48:55;101221.41;;;11.73;66.08
70248;BME280;57641;51.416;5.506;2023-11-21T00:51:21;101228.84;;;11.70;66.67
70248;BME280;57641;51.416;5.506;2023-11-21T00:53:47;101225.91;;;11.63;66.74
70248;BME280;57641;51.416;5.506;2023-11-21T00:56:13;101235.03;;;11.70;66.31
70248;BME280;57641;51.416;5.506;2023-11-21T00:58:39;101232.03;;;11.56;66.80
70248;BME280;57641;51.416;5.506;2023-11-21T01:01:09;101235.63;;;11.64;66.37
70248;BME280;57641;51.416;5.506;2023-11-21T01:03:35;101239.50;;;11.52;66.89
70248;BME280;57641;51.416;5.506;2023-11-21T01:06:00;101239.84;;;11.39;66.86
70248;BME280;57641;51.416;5.506;2023-11-21T01:08:26;101242.78;;;11.46;67.40
70248;BME280;57641;51.416;5.506;2023-11-21T01:10:51;101243.16;;;11.51;66.79
70248;BME280;57641;51.416;5.506;2023-11-21T01:13:16;101243.16;;;11.51;67.27
70248;BME280;57641;51.416;5.506;2023-11-21T01:15:42;101250.41;;;11.59;66.49
70248;BME280;57641;51.416;5.506;2023-11-21T01:18:08;101254.13;;;11.48;66.46
70248;BME280;57641;51.416;5.506;2023-11-21T01:20:36;101262.59;;;11.43;66.48
70248;BME280;57641;51.416;5.506;2023-11-21T01:23:01;101259.78;;;11.45;65.68
70248;BME280;57641;51.416;5.506;2023-11-21T01:25:27;101258.53;;;11.39;65.65
70248;BME280;57641;51.416;5.506;2023-11-21T01:27:52;101259.44;;;11.30;66.07
70248;BME280;57641;51.416;5.506;2023-11-21T01:30:18;101257.56;;;11.40;65.30
70248;BME280;57641;51.416;5.506;2023-11-21T01:32:44;101265.16;;;11.35;64.91
70248;BME280;57641;51.416;5.506;2023-11-21T01:35:10;101275.28;;;11.32;65.48
70248;BME280;57641;51.416;5.506;2023-11-21T01:37:36;101275.06;;;11.25;65.51
70248;BME280;57641;51.416;5.506;2023-11-21T01:40:03;101277.16;;;11.22;65.05
70248;BME280;57641;51.416;5.506;2023-11-21T01:42:31;101283.91;;;11.16;64.07
70248;BME280;57641;51.416;5.506;2023-11-21T01:44:56;101278.59;;;11.16;64.12
70248;BME280;57641;51.416;5.506;2023-11-21T01:47:22;101284.22;;;11.13;64.01
70248;BME280;57641;51.416;5.506;2023-11-21T01:49:47;101284.94;;;11.06;64.67
70248;BME280;57641;51.416;5.506;2023-11-21T01:52:13;101293.97;;;11.05;63.97
70248;BME280;57641;51.416;5.506;2023-11-21T01:54:41;101286.13;;;10.93;64.33
70248;BME280;57641;51.416;5.506;2023-11-21T01:57:07;101287.91;;;11.02;64.08
70248;BME280;57641;51.416;5.506;2023-11-21T01:59:44;101278.97;;;10.94;64.67
70248;BME280;57641;51.416;5.506;2023-11-21T02:02:09;101277.72;;;10.88;65.51
70248;BME280;57641;51.416;5.506;2023-11-21T02:04:36;101276.47;;;10.83;65.24
70248;BME280;57641;51.416;5.506;2023-11-21T02:07:02;101268.44;;;10.92;65.19
70248;BME280;57641;51.416;5.506;2023-11-21T02:09:31;101276.84;;;10.97;65.32
70248;BME280;57641;51.416;5.506;2023-11-21T02:11:58;101281.75;;;11.02;65.04
70248;BME280;57641;51.416;5.506;2023-11-21T02:14:25;101279.25;;;10.91;65.18
70248;BME280;57641;51.416;5.506;2023-11-21T02:16:52;101288.63;;;11.05;66.44
70248;BME280;57641;51.416;5.506;2023-11-21T02:19:20;101295.22;;;11.10;66.81
70248;BME280;57641;51.416;5.506;2023-11-21T02:21:54;101298.84;;;11.09;67.37
70248;BME280;57641;51.416;5.506;2023-11-21T02:24:22;101302.81;;;10.95;68.30
70248;BME280;57641;51.416;5.506;2023-11-21T02:26:48;101306.03;;;11.09;68.24
70248;BME280;57641;51.416;5.506;2023-11-21T02:29:14;101310.38;;;11.10;68.39
70248;BME280;57641;51.416;5.506;2023-11-21T02:31:43;101312.75;;;11.13;68.86
70248;BME280;57641;51.416;5.506;2023-11-21T02:34:14;101317.63;;;11.17;68.07
70248;BME280;57641;51.416;5.506;2023-11-21T02:36:40;101309.75;;;11.25;69.00
70248;BME280;57641;51.416;5.506;2023-11-21T02:39:05;101305.50;;;11.32;68.31
70248;BME280;57641;51.416;5.506;2023-11-21T02:41:32;101317.84;;;11.33;68.58
70248;BME280;57641;51.416;5.506;2023-11-21T02:44:00;101319.84;;;11.31;68.59
70248;BME280;57641;51.416;5.506;2023-11-21T02:46:26;101316.25;;;11.13;69.44
70248;BME280;57641;51.416;5.506;2023-11-21T02:48:52;101323.56;;;11.01;69.18
70248;BME280;57641;51.416;5.506;2023-11-21T02:51:20;101323.56;;;11.01;69.60
70248;BME280;57641;51.416;5.506;2023-11-21T02:53:45;101322.91;;;10.99;69.29
70248;BME280;57641;51.416;5.506;2023-11-21T02:56:15;101322.19;;;10.97;69.62
70248;BME280;57641;51.416;5.506;2023-11-21T02:58:44;101318.53;;;10.98;69.90
70248;BME280;57641;51.416;5.506;2023-11-21T03:01:10;101318.50;;;11.08;69.80
70248;BME280;57641;51.416;5.506;2023-11-21T03:03:37;101318.66;;;11.07;68.99
70248;BME280;57641;51.416;5.506;2023-11-21T03:06:08;101324.41;;;11.12;68.62
70248;BME280;57641;51.416;5.506;2023-11-21T03:08:34;101319.47;;;11.17;68.45
70248;BME280;57641;51.416;5.506;2023-11-21T03:11:03;101329.19;;;11.08;68.71
70248;BME280;57641;51.416;5.506;2023-11-21T03:13:29;101324.13;;;11.15;68.95
70248;BME280;57641;51.416;5.506;2023-11-21T03:15:54;101319.63;;;11.15;68.36
70248;BME280;57641;51.416;5.506;2023-11-21T03:18:21;101328.31;;;11.17;68.53
70248;BME280;57641;51.416;5.506;2023-11-21T03:20:47;101336.44;;;11.16;68.39
70248;BME280;57641;51.416;5.506;2023-11-21T03:23:13;101336.47;;;11.06;68.89
70248;BME280;57641;51.416;5.506;2023-11-21T03:25:38;101336.91;;;11.01;68.67
70248;BME280;57641;51.416;5.506;2023-11-21T03:28:04;101343.25;;;11.10;68.57
70248;BME280;57641;51.416;5.506;2023-11-21T03:30:29;101336.34;;;11.08;68.49
70248;BME280;57641;51.416;5.506;2023-11-21T03:32:54;101346.72;;;11.11;68.46
70248;BME280;57641;51.416;5.506;2023-11-21T03:35:20;101344.50;;;10.96;68.14
70248;BME280;57641;51.416;5.506;2023-11-21T03:37:46;101344.50;;;11.06;68.07
70248;BME280;57641;51.416;5.506;2023-11-21T03:40:12;101347.13;;;11.16;68.42
70248;BME280;57641;51.416;5.506;2023-11-21T03:42:39;101344.22;;;11.09;68.43
70248;BME280;57641;51.416;5.506;2023-11-21T03:45:05;101341.78;;;11.16;68.49
70248;BME280;57641;51.416;5.506;2023-11-21T03:47:34;101342.50;;;11.18;68.27
70248;BME280;57641;51.416;5.506;2023-11-21T03:50:00;101341.56;;;11.09;68.40
70248;BME280;57641;51.416;5.506;2023-11-21T03:52:26;101342.56;;;10.98;68.26
70248;BME280;57641;51.416;5.506;2023-11-21T03:54:54;101350.94;;;11.13;67.90
70248;BME280;57641;51.416;5.506;2023-11-21T03:57:20;101346.00;;;11.18;67.71
70248;BME280;57641;51.416;5.506;2023-11-21T03:59:46;101355.31;;;11.14;67.95
70248;BME280;57641;51.416;5.506;2023-11-21T04:02:11;101345.78;;;11.02;68.66
70248;BME280;57641;51.416;5.506;2023-11-21T04:04:37;101346.63;;;11.02;67.62
70248;BME280;57641;51.416;5.506;2023-11-21T04:07:03;101350.84;;;10.95;68.19
70248;BME280;57641;51.416;5.506;2023-11-21T04:09:29;101359.53;;;10.97;68.43
70248;BME280;57641;51.416;5.506;2023-11-21T04:11:55;101362.75;;;11.01;67.90
70248;BME280;57641;51.416;5.506;2023-11-21T04:14:21;101370.50;;;11.04;67.82
70248;BME280;57641;51.416;5.506;2023-11-21T04:16:47;101371.47;;;11.03;67.81
70248;BME280;57641;51.416;5.506;2023-11-21T04:19:15;101370.66;;;10.93;68.53
70248;BME280;57641;51.416;5.506;2023-11-21T04:21:41;101371.50;;;10.93;68.37
70248;BME280;57641;51.416;5.506;2023-11-21T04:24:07;101381.03;;;10.96;68.17
70248;BME280;57641;51.416;5.506;2023-11-21T04:26:33;101386.81;;;10.82;68.48
70248;BME280;57641;51.416;5.506;2023-11-21T04:28:58;101388.75;;;10.80;68.82
70248;BME280;57641;51.416;5.506;2023-11-21T04:31:24;101394.38;;;10.86;68.10
70248;BME280;57641;51.416;5.506;2023-11-21T04:33:49;101389.91;;;10.77;68.45
70248;BME280;57641;51.416;5.506;2023-11-21T04:36:14;101394.38;;;10.86;68.22
70248;BME280;57641;51.416;5.506;2023-11-21T04:38:40;101387.38;;;10.66;68.31
70248;BME280;57641;51.416;5.506;2023-11-21T04:41:06;101393.97;;;10.72;69.36
70248;BME280;57641;51.416;5.506;2023-11-21T04:43:32;101400.84;;;10.74;68.66
70248;BME280;57641;51.416;5.506;2023-11-21T04:45:57;101418.22;;;10.69;69.20
70248;BME280;57641;51.416;5.506;2023-11-21T04:48:23;101414.75;;;10.78;68.60
70248;BME280;57641;51.416;5.506;2023-11-21T04:50:48;101419.09;;;10.88;67.93
70248;BME280;57641;51.416;5.506;2023-11-21T04:53:14;101417.97;;;10.91;67.64
70248;BME280;57641;51.416;5.506;2023-11-21T04:55:40;101424.88;;;10.84;68.13
70248;BME280;57641;51.416;5.506;2023-11-21T04:58:07;101429.50;;;10.72;68.30
70248;BME280;57641;51.416;5.506;2023-11-21T05:00:33;101438.75;;;10.78;68.94
70248;BME280;57641;51.416;5.506;2023-11-21T05:02:59;101429.91;;;10.87;68.24
70248;BME280;57641;51.416;5.506;2023-11-21T05:05:26;101428.91;;;10.97;68.38
70248;BME280;57641;51.416;5.506;2023-11-21T05:07:52;101427.50;;;11.03;68.33
70248;BME280;57641;51.416;5.506;2023-11-21T05:10:19;101444.63;;;11.00;68.11
70248;BME280;57641;51.416;5.506;2023-11-21T05:12:45;101432.28;;;10.99;67.78
70248;BME280;57641;51.416;5.506;2023-11-21T05:15:14;101435.25;;;10.87;68.71
70248;BME280;57641;51.416;5.506;2023-11-21T05:17:41;101443.53;;;10.84;68.63
70248;BME280;57641;51.416;5.506;2023-11-21T05:20:10;101434.41;;;10.77;68.56
70248;BME280;57641;51.416;5.506;2023-11-21T05:22:37;101427.63;;;10.63;69.41
70248;BME280;57641;51.416;5.506;2023-11-21T05:25:03;101437.06;;;10.86;69.12
70248;BME280;57641;51.416;5.506;2023-11-21T05:27:29;101441.41;;;10.87;68.55
70248;BME280;57641;51.416;5.506;2023-11-21T05:29:59;101439.16;;;11.02;68.32
70248;BME280;57641;51.416;5.506;2023-11-21T05:32:25;101445.47;;;11.01;68.00
70248;BME280;57641;51.416;5.506;2023-11-21T05:34:51;101450.53;;;10.94;68.33
70248;BME280;57641;51.416;5.506;2023-11-21T05:37:21;101452.50;;;11.02;68.02
70248;BME280;57641;51.416;5.506;2023-11-21T05:39:46;101455.59;;;10.97;68.13
70248;BME280;57641;51.416;5.506;2023-11-21T05:42:12;101462.75;;;10.87;68.54
70248;BME280;57641;51.416;5.506;2023-11-21T05:44:41;101463.31;;;10.91;68.32
70248;BME280;57641;51.416;5.506;2023-11-21T05:47:07;101459.38;;;10.95;68.63
70248;BME280;57641;51.416;5.506;2023-11-21T05:49:33;101460.09;;;10.97;68.65
70248;BME280;57641;51.416;5.506;2023-11-21T05:51:58;101458.13;;;10.99;68.41
70248;BME280;57641;51.416;5.506;2023-11-21T05:54:25;101479.06;;;11.04;67.83
70248;BME280;57641;51.416;5.506;2023-11-21T05:56:51;101487.75;;;11.15;68.31
70248;BME280;57641;51.416;5.506;2023-11-21T05:59:17;101485.66;;;11.09;68.25
70248;BME280;57641;51.416;5.506;2023-11-21T06:01:42;101484.94;;;11.17;68.38
70248;BME280;57641;51.416;5.506;2023-11-21T06:04:08;101488.00;;;11.22;68.20
70248;BME280;57641;51.416;5.506;2023-11-21T06:06:35;101482.41;;;11.25;68.11
70248;BME280;57641;51.416;5.506;2023-11-21T06:09:01;101490.13;;;11.28;68.15
70248;BME280;57641;51.416;5.506;2023-11-21T06:11:27;101489.28;;;11.27;68.24
70248;BME280;57641;51.416;5.506;2023-11-21T06:13:52;101498.84;;;11.30;67.88
70248;BME280;57641;51.416;5.506;2023-11-21T06:16:21;101502.47;;;11.38;67.67
70248;BME280;57641;51.416;5.506;2023-11-21T06:18:46;101509.09;;;11.34;67.58
70248;BME280;57641;51.416;5.506;2023-11-21T06:21:12;101504.47;;;11.36;67.96
70248;BME280;57641;51.416;5.506;2023-11-21T06:23:38;101498.41;;;11.34;67.78
70248;BME280;57641;51.416;5.506;2023-11-21T06:26:05;101509.66;;;11.28;67.95
70248;BME280;57641;51.416;5.506;2023-11-21T06:28:31;101514.28;;;11.07;68.80
70248;BME280;57641;51.416;5.506;2023-11-21T06:30:57;101507.25;;;11.06;69.88
70248;BME280;57641;51.416;5.506;2023-11-21T06:33:33;101512.03;;;11.22;69.32
70248;BME280;57641;51.416;5.506;2023-11-21T06:36:00;101516.25;;;11.34;68.64
70248;BME280;57641;51.416;5.506;2023-11-21T06:38:28;101517.81;;;11.36;68.83
70248;BME280;57641;51.416;5.506;2023-11-21T06:40:58;101511.91;;;11.23;69.32
70248;BME280;57641;51.416;5.506;2023-11-21T06:43:23;101526.94;;;11.34;69.53
70248;BME280;57641;51.416;5.506;2023-11-21T06:45:49;101525.09;;;11.44;68.91
70248;BME280;57641;51.416;5.506;2023-11-21T06:48:15;101516.50;;;11.50;69.11
70248;BME280;57641;51.416;5.506;2023-11-21T06:50:41;101521.84;;;11.50;68.86
70248;BME280;57641;51.416;5.506;2023-11-21T06:53:07;101523.81;;;11.58;68.65
70248;BME280;57641;51.416;5.506;2023-11-21T06:55:35;101531.41;;;11.62;69.08
70248;BME280;57641;51.416;5.506;2023-11-21T06:58:01;101530.16;;;11.57;68.92
70248;BME280;57641;51.416;5.506;2023-11-21T07:00:27;101530.41;;;11.54;69.43
70248;BME280;57641;51.416;5.506;2023-11-21T07:02:55;101533.78;;;11.56;68.90
70248;BME280;57641;51.416;5.506;2023-11-21T07:05:22;101540.81;;;11.66;69.22
70248;BME280;57641;51.416;5.506;2023-11-21T07:07:48;101548.13;;;11.55;69.09
70248;BME280;57641;51.416;5.506;2023-11-21T07:10:14;101550.66;;;11.56;69.29
70248;BME280;57641;51.416;5.506;2023-11-21T07:12:40;101548.69;;;11.68;69.04
70248;BME280;57641;51.416;5.506;2023-11-21T07:15:07;101554.88;;;11.78;69.08
70248;BME280;57641;51.416;5.506;2023-11-21T07:17:35;101557.25;;;11.62;69.33
70248;BME280;57641;51.416;5.506;2023-11-21T07:20:02;101567.94;;;11.62;69.84
70248;BME280;57641;51.416;5.506;2023-11-21T07:22:34;101572.56;;;11.60;69.88
70248;BME280;57641;51.416;5.506;2023-11-21T07:25:00;101579.19;;;11.75;69.22
70248;BME280;57641;51.416;5.506;2023-11-21T07:27:26;101586.78;;;11.79;69.69
70248;BME280;57641;51.416;5.506;2023-11-21T07:29:51;101596.78;;;11.77;69.37
70248;BME280;57641;51.416;5.506;2023-11-21T07:32:17;101594.97;;;11.78;69.23
70248;BME280;57641;51.416;5.506;2023-11-21T07:34:42;101603.94;;;11.77;69.07
70248;BME280;57641;51.416;5.506;2023-11-21T07:37:08;101597.31;;;11.81;69.39
70248;BME280;57641;51.416;5.506;2023-11-21T07:39:36;101605.63;;;11.68;69.42
70248;BME280;57641;51.416;5.506;2023-11-21T07:42:02;101603.81;;;11.78;69.91
70248;BME280;57641;51.416;5.506;2023-11-21T07:44:28;101608.84;;;11.81;69.46
70248;BME280;57641;51.416;5.506;2023-11-21T07:46:54;101610.13;;;11.87;69.84
70248;BME280;57641;51.416;5.506;2023-11-21T07:49:26;101623.19;;;11.80;69.78
70248;BME280;57641;51.416;5.506;2023-11-21T07:51:55;101617.69;;;11.92;69.63
70248;BME280;57641;51.416;5.506;2023-11-21T07:54:24;101626.03;;;11.89;69.37
70248;BME280;57641;51.416;5.506;2023-11-21T07:56:49;101624.31;;;11.97;69.19
70248;BME280;57641;51.416;5.506;2023-11-21T07:59:15;101626.13;;;11.97;69.10
70248;BME280;57641;51.416;5.506;2023-11-21T08:01:40;101639.06;;;12.01;69.02
70248;BME280;57641;51.416;5.506;2023-11-21T08:04:08;101633.59;;;12.03;69.10
70248;BME280;57641;51.416;5.506;2023-11-21T08:06:34;101641.06;;;11.90;69.70
70248;BME280;57641;51.416;5.506;2023-11-21T08:08:59;101642.16;;;11.97;69.86
70248;BME280;57641;51.416;5.506;2023-11-21T08:11:24;101648.22;;;11.99;69.49
70248;BME280;57641;51.416;5.506;2023-11-21T08:13:51;101641.72;;;12.11;69.28
70248;BME280;57641;51.416;5.506;2023-11-21T08:16:17;101652.19;;;11.95;69.78
70248;BME280;57641;51.416;5.506;2023-11-21T08:18:42;101652.00;;;12.06;69.71
70248;BME280;57641;51.416;5.506;2023-11-21T08:21:08;101648.06;;;11.91;69.88
70248;BME280;57641;51.416;5.506;2023-11-21T08:23:34;101645.97;;;11.56;70.68
70248;BME280;57641;51.416;5.506;2023-11-21T08:25:59;101640.91;;;11.62;71.29
70248;BME280;57641;51.416;5.506;2023-11-21T08:28:25;101646.97;;;11.83;70.74
70248;BME280;57641;51.416;5.506;2023-11-21T08:30:53;101649.91;;;12.00;70.76
70248;BME280;57641;51.416;5.506;2023-11-21T08:33:21;101656.22;;;12.08;70.71
70248;BME280;57641;51.416;5.506;2023-11-21T08:35:48;101668.34;;;11.83;71.21
70248;BME280;57641;51.416;5.506;2023-11-21T08:38:13;101662.72;;;11.87;71.03
70248;BME280;57641;51.416;5.506;2023-11-21T08:40:39;101667.34;;;12.04;71.03
70248;BME280;57641;51.416;5.506;2023-11-21T08:43:05;101675.66;;;12.10;70.76
70248;BME280;57641;51.416;5.506;2023-11-21T08:45:30;101680.97;;;12.20;70.77
70248;BME280;57641;51.416;5.506;2023-11-21T08:47:56;101680.63;;;12.33;70.45
70248;BME280;57641;51.416;5.506;2023-11-21T08:50:21;101679.81;;;12.42;70.44
70248;BME280;57641;51.416;5.506;2023-11-21T08:52:47;101675.97;;;12.44;69.91
70248;BME280;57641;51.416;5.506;2023-11-21T08:55:13;101681.31;;;12.44;70.27
70248;BME280;57641;51.416;5.506;2023-11-21T08:57:39;101680.06;;;12.39;70.48
70248;BME280;57641;51.416;5.506;2023-11-21T09:00:09;101679.19;;;12.48;70.32
70248;BME280;57641;51.416;5.506;2023-11-21T09:02:39;101682.31;;;12.53;69.93
70248;BME280;57641;51.416;5.506;2023-11-21T09:05:16;101677.63;;;12.55;69.79
70248;BME280;57641;51.416;5.506;2023-11-21T09:07:42;101683.97;;;12.63;69.80
70248;BME280;57641;51.416;5.506;2023-11-21T09:10:08;101688.66;;;12.42;70.31
70248;BME280;57641;51.416;5.506;2023-11-21T09:12:35;101689.91;;;12.38;71.13
70248;BME280;57641;51.416;5.506;2023-11-21T09:15:06;101691.00;;;12.55;70.87
70248;BME280;57641;51.416;5.506;2023-11-21T09:17:33;101691.69;;;12.66;70.20
70248;BME280;57641;51.416;5.506;2023-11-21T09:20:00;101692.72;;;12.46;71.27
70248;BME280;57641;51.416;5.506;2023-11-21T09:22:25;101693.50;;;12.66;70.84
70248;BME280;57641;51.416;5.506;2023-11-21T09:24:52;101700.69;;;12.65;70.69
70248;BME280;57641;51.416;5.506;2023-11-21T09:27:19;101694.91;;;12.70;70.90
70248;BME280;57641;51.416;5.506;2023-11-21T09:29:44;101704.16;;;12.76;70.82
70248;BME280;57641;51.416;5.506;2023-11-21T09:32:10;101709.34;;;12.87;70.94
70248;BME280;57641;51.416;5.506;2023-11-21T09:34:39;101711.75;;;12.90;70.68
70248;BME280;57641;51.416;5.506;2023-11-21T09:37:05;101714.56;;;12.88;70.03
70248;BME280;57641;51.416;5.506;2023-11-21T09:39:32;101731.47;;;12.89;70.57
70248;BME280;57641;51.416;5.506;2023-11-21T09:42:08;101727.19;;;12.96;70.26
70248;BME280;57641;51.416;5.506;2023-11-21T09:44:44;101738.59;;;12.98;70.21
70248;BME280;57641;51.416;5.506;2023-11-21T09:47:14;101732.31;;;12.89;70.28
70248;BME280;57641;51.416;5.506;2023-11-21T09:49:45;101736.78;;;12.98;70.71
70248;BME280;57641;51.416;5.506;2023-11-21T09:52:18;101738.28;;;13.01;70.67
70248;BME280;57641;51.416;5.506;2023-11-21T09:54:50;101751.69;;;13.01;70.34
70248;BME280;57641;51.416;5.506;2023-11-21T09:57:17;101746.63;;;12.98;70.81
70248;BME280;57641;51.416;5.506;2023-11-21T09:59:45;101753.53;;;13.00;70.37
70248;BME280;57641;51.416;5.506;2023-11-21T10:02:12;101763.94;;;13.13;70.59
70248;BME280;57641;51.416;5.506;2023-11-21T10:04:39;101757.03;;;13.01;71.02
70248;BME280;57641;51.416;5.506;2023-11-21T10:07:05;101763.81;;;13.05;70.43
70248;BME280;57641;51.416;5.506;2023-11-21T10:09:36;101770.53;;;13.09;70.79
70248;BME280;57641;51.416;5.506;2023-11-21T10:12:05;101767.59;;;13.12;70.81
70248;BME280;57641;51.416;5.506;2023-11-21T10:14:33;101776.34;;;13.14;70.43
70248;BME280;57641;51.416;5.506;2023-11-21T10:16:59;101778.56;;;13.19;70.79
70248;BME280;57641;51.416;5.506;2023-11-21T10:19:25;101779.81;;;13.24;71.14
70248;BME280;57641;51.416;5.506;2023-11-21T10:21:52;101781.13;;;13.38;70.89
70248;BME280;57641;51.416;5.506;2023-11-21T10:24:19;101779.22;;;13.30;71.52
70248;BME280;57641;51.416;5.506;2023-11-21T10:26:45;101781.84;;;13.40;71.09
70248;BME280;57641;51.416;5.506;2023-11-21T10:29:14;101776.50;;;13.40;70.79
70248;BME280;57641;51.416;5.506;2023-11-21T10:31:42;101781.56;;;13.43;71.28
70248;BME280;57641;51.416;5.506;2023-11-21T10:34:15;101773.47;;;13.52;70.88
70248;BME280;57641;51.416;5.506;2023-11-21T10:36:42;101771.72;;;13.61;71.16
70248;BME280;57641;51.416;5.506;2023-11-21T10:39:08;101770.19;;;13.59;71.18
70248;BME280;57641;51.416;5.506;2023-11-21T10:41:35;101773.56;;;13.61;70.90
70248;BME280;57641;51.416;5.506;2023-11-21T10:44:01;101777.00;;;13.53;71.42
70248;BME280;57641;51.416;5.506;2023-11-21T10:46:30;101778.31;;;13.67;71.13
70248;BME280;57641;51.416;5.506;2023-11-21T10:48:56;101776.03;;;13.72;70.73
70248;BME280;57641;51.416;5.506;2023-11-21T10:51:22;101787.00;;;13.51;71.52
70248;BME280;57641;51.416;5.506;2023-11-21T10:53:51;101795.09;;;13.69;71.17
70248;BME280;57641;51.416;5.506;2023-11-21T10:56:18;101795.03;;;13.78;70.99
70248;BME280;57641;51.416;5.506;2023-11-21T10:58:48;101790.06;;;13.83;70.93
70248;BME280;57641;51.416;5.506;2023-11-21T11:01:15;101790.69;;;13.95;71.01
70248;BME280;57641;51.416;5.506;2023-11-21T11:03:43;101791.81;;;13.92;71.24
70248;BME280;57641;51.416;5.506;2023-11-21T11:06:09;101797.81;;;14.04;70.82
70248;BME280;57641;51.416;5.506;2023-11-21T11:08:37;101803.16;;;14.04;70.76
70248;BME280;57641;51.416;5.506;2023-11-21T11:11:07;101801.41;;;13.95;71.10
70248;BME280;57641;51.416;5.506;2023-11-21T11:13:33;101799.56;;;14.13;70.71
70248;BME280;57641;51.416;5.506;2023-11-21T11:15:59;101801.13;;;14.16;70.69
70248;BME280;57641;51.416;5.506;2023-11-21T11:18:28;101803.34;;;14.20;70.87
70248;BME280;57641;51.416;5.506;2023-11-21T11:29:35;101812.72;;;14.07;71.22
70248;BME280;57641;51.416;5.506;2023-11-21T11:32:18;101819.34;;;13.94;71.72
70248;BME280;57641;51.416;5.506;2023-11-21T11:38:01;101828.41;;;14.11;71.64
70248;BME280;57641;51.416;5.506;2023-11-21T11:40:41;101836.44;;;14.11;71.22
70248;BME280;57641;51.416;5.506;2023-11-21T11:43:07;101832.56;;;13.78;72.54
70248;BME280;57641;51.416;5.506;2023-11-21T11:45:34;101838.72;;;14.06;71.92
70248;BME280;57641;51.416;5.506;2023-11-21T11:48:07;101831.13;;;14.02;72.14
70248;BME280;57641;51.416;5.506;2023-11-21T11:50:33;101834.13;;;14.16;71.74
70248;BME280;57641;51.416;5.506;2023-11-21T11:53:15;101824.47;;;14.23;71.52
70248;BME280;57641;51.416;5.506;2023-11-21T11:55:41;101825.63;;;14.21;71.65
70248;BME280;57641;51.416;5.506;2023-11-21T11:58:07;101833.28;;;14.33;71.74
70248;BME280;57641;51.416;5.506;2023-11-21T12:00:36;101834.38;;;14.41;71.21
70248;BME280;57641;51.416;5.506;2023-11-21T12:03:05;101845.97;;;14.41;70.87
70248;BME280;57641;51.416;5.506;2023-11-21T12:05:33;101850.25;;;14.52;70.51
70248;BME280;57641;51.416;5.506;2023-11-21T12:08:05;101856.50;;;14.25;71.24
70248;BME280;57641;51.416;5.506;2023-11-21T12:10:33;101860.22;;;14.42;70.45
70248;BME280;57641;51.416;5.506;2023-11-21T12:13:01;101871.53;;;14.35;70.59
70248;BME280;57641;51.416;5.506;2023-11-21T12:15:27;101873.88;;;14.03;71.67
70248;BME280;57641;51.416;5.506;2023-11-21T12:17:57;101871.50;;;14.18;71.15
70248;BME280;57641;51.416;5.506;2023-11-21T12:20:24;101875.06;;;14.36;70.81
70248;BME280;57641;51.416;5.506;2023-11-21T12:22:51;101878.88;;;14.43;70.19
70248;BME280;57641;51.416;5.506;2023-11-21T12:25:21;101881.84;;;14.40;70.24
70248;BME280;57641;51.416;5.506;2023-11-21T12:27:51;101882.59;;;14.50;69.79
70248;BME280;57641;51.416;5.506;2023-11-21T12:30:22;101883.16;;;14.54;69.79
70248;BME280;57641;51.416;5.506;2023-11-21T12:32:52;101880.25;;;14.47;69.69
70248;BME280;57641;51.416;5.506;2023-11-21T12:35:19;101890.50;;;14.52;69.59
70248;BME280;57641;51.416;5.506;2023-11-21T12:37:46;101892.88;;;14.55;69.27
70248;BME280;57641;51.416;5.506;2023-11-21T12:40:13;101891.13;;;14.46;69.37
70248;BME280;57641;51.416;5.506;2023-11-21T12:42:57;101901.06;;;14.35;69.80
70248;BME280;57641;51.416;5.506;2023-11-21T12:45:26;101896.59;;;14.26;69.80
70248;BME280;57641;51.416;5.506;2023-11-21T12:47:57;101899.28;;;14.26;69.83
70248;BME280;57641;51.416;5.506;2023-11-21T12:50:26;101898.78;;;14.41;70.06
70248;BME280;57641;51.416;5.506;2023-11-21T12:53:04;101895.41;;;14.38;69.88
70248;BME280;57641;51.416;5.506;2023-11-21T12:55:32;101895.63;;;14.45;69.52
70248;BME280;57641;51.416;5.506;2023-11-21T12:58:01;101905.91;;;14.50;69.67
70248;BME280;57641;51.416;5.506;2023-11-21T13:00:36;101900.53;;;14.50;69.61